createdAt,value
2018-04-25T00:00:18.129Z,73.00
2018-04-25T00:01:22.691Z,62.50
2018-04-25T00:02:28.068Z,65.00
2018-04-25T00:03:32.242Z,52.00
2018-04-25T00:04:37.284Z,77.50
2018-04-25T00:05:41.365Z,68.50
2018-04-25T00:06:45.581Z,62.50
2018-04-25T00:07:50.171Z,58.50
2018-04-25T00:08:54.272Z,60.00
2018-04-25T00:09:58.394Z,70.00
2018-04-25T00:11:03.112Z,60.00
2018-04-25T00:12:07.256Z,72.50
2018-04-25T00:13:11.346Z,70.00
2018-04-25T00:14:16.330Z,45.50
2018-04-25T00:15:20.970Z,82.00
2018-04-25T00:16:25.132Z,59.50
2018-04-25T00:17:29.774Z,66.50
2018-04-25T00:18:33.868Z,60.00
2018-04-25T00:19:38.516Z,57.00
2018-04-25T00:20:42.948Z,71.00
2018-04-25T00:21:47.134Z,60.00
2018-04-25T00:22:51.198Z,66.50
2018-04-25T00:23:55.350Z,57.00
2018-04-25T00:24:59.456Z,60.50
2018-04-25T00:26:03.532Z,32.00
2018-04-25T00:27:07.601Z,91.50
2018-04-25T00:28:11.772Z,75.00
2018-04-25T00:29:16.200Z,42.50
2018-04-25T00:30:20.722Z,76.50
2018-04-25T00:31:24.806Z,76.50
2018-04-25T00:32:29.962Z,73.50
2018-04-25T00:33:34.278Z,54.00
2018-04-25T00:34:38.948Z,41.00
2018-04-25T00:35:43.034Z,60.00
2018-04-25T00:36:47.270Z,70.50
2018-04-25T00:37:51.397Z,70.00
2018-04-25T00:38:55.778Z,78.50
2018-04-25T00:39:59.855Z,58.00
2018-04-25T00:41:03.963Z,76.50
2018-04-25T00:42:08.086Z,65.50
2018-04-25T00:43:12.590Z,65.00
2018-04-25T00:44:18.011Z,64.00
2018-04-25T00:45:22.423Z,79.50
2018-04-25T00:46:26.509Z,62.50
2018-04-25T00:47:30.678Z,71.00
2018-04-25T00:48:34.752Z,78.50
2018-04-25T00:49:39.564Z,71.00
2018-04-25T00:50:43.955Z,67.50
2018-04-25T00:51:48.030Z,80.50
2018-04-25T00:52:52.128Z,52.50
2018-04-25T00:53:56.278Z,79.50
2018-04-25T00:55:00.396Z,54.50
2018-04-25T00:56:04.533Z,73.00
2018-04-25T00:57:08.692Z,70.50
2018-04-25T00:58:12.958Z,64.50
2018-04-25T00:59:17.362Z,72.00
2018-04-25T01:00:21.748Z,56.50
2018-04-25T01:01:25.842Z,72.00
2018-04-25T01:02:30.372Z,75.00
2018-04-25T01:03:35.153Z,85.00
2018-04-25T01:04:39.461Z,59.00
2018-04-25T01:05:43.827Z,51.00
2018-04-25T01:06:47.955Z,73.00
2018-04-25T01:07:52.031Z,40.50
2018-04-25T01:08:56.513Z,47.00
2018-04-25T01:10:00.656Z,55.50
2018-04-25T01:11:04.739Z,57.50
2018-04-25T01:12:08.857Z,71.50
2018-04-25T01:13:12.977Z,56.50
2018-04-25T01:14:17.473Z,89.50
2018-04-25T01:15:22.367Z,100.50
2018-04-25T01:16:27.187Z,77.50
2018-04-25T01:17:31.439Z,71.50
2018-04-25T01:18:35.660Z,34.00
2018-04-25T01:19:39.867Z,93.00
2018-04-25T01:20:44.036Z,71.00
2018-04-25T01:21:48.514Z,71.00
2018-04-25T01:22:52.791Z,58.50
2018-04-25T01:23:57.335Z,60.50
2018-04-25T01:25:01.513Z,69.00
2018-04-25T01:26:06.824Z,70.00
2018-04-25T01:27:11.045Z,65.50
2018-04-25T01:28:15.768Z,74.00
2018-04-25T01:29:20.247Z,89.00
2018-04-25T01:30:26.090Z,91.00
2018-04-25T01:31:30.597Z,58.00
2018-04-25T01:32:35.171Z,94.00
2018-04-25T01:33:40.588Z,80.50
2018-04-25T01:34:45.112Z,84.00
2018-04-25T01:35:49.282Z,39.50
2018-04-25T01:36:53.627Z,73.00
2018-04-25T01:37:58.947Z,81.00
2018-04-25T01:39:03.065Z,80.00
2018-04-25T01:40:08.189Z,85.00
2018-04-25T01:41:12.329Z,54.00
2018-04-25T01:42:16.893Z,71.00
2018-04-25T01:43:21.287Z,53.50
2018-04-25T01:44:25.476Z,69.50
2018-04-25T01:45:31.457Z,88.00
2018-04-25T01:46:36.735Z,75.50
2018-04-25T01:47:41.617Z,82.50
2018-04-25T01:48:54.659Z,89.50
2018-04-25T01:50:00.787Z,71.50
2018-04-25T01:51:03.966Z,62.50
2018-04-25T01:52:19.699Z,71.50
2018-04-25T01:53:34.747Z,71.50
2018-04-25T01:54:49.617Z,68.50
2018-04-25T01:56:04.713Z,76.50
2018-04-25T01:57:19.989Z,57.50
2018-04-25T01:58:34.982Z,68.50
2018-04-25T01:59:50.025Z,57.50
2018-04-25T02:01:04.999Z,79.50
2018-04-25T02:02:08.079Z,85.00
2018-04-25T02:03:10.965Z,48.00
2018-04-25T02:04:15.121Z,45.50
2018-04-25T02:05:19.203Z,58.00
2018-04-25T02:06:23.346Z,76.00
2018-04-25T02:07:27.705Z,81.50
2018-04-25T02:08:31.863Z,81.50
2018-04-25T02:09:36.933Z,65.50
2018-04-25T02:10:41.387Z,59.50
2018-04-25T02:11:45.549Z,62.00
2018-04-25T02:12:49.616Z,65.00
2018-04-25T02:13:53.777Z,67.50
2018-04-25T02:14:58.243Z,92.50
2018-04-25T02:16:02.538Z,79.00
2018-04-25T02:17:06.753Z,69.00
2018-04-25T02:18:11.282Z,79.50
2018-04-25T02:19:15.496Z,63.50
2018-04-25T02:20:19.769Z,70.00
2018-04-25T02:21:24.502Z,86.00
2018-04-25T02:22:28.920Z,88.50
2018-04-25T02:23:33.089Z,80.50
2018-04-25T02:24:37.255Z,62.00
2018-04-25T02:25:41.347Z,69.00
2018-04-25T02:26:46.404Z,66.50
2018-04-25T02:27:50.547Z,53.50
2018-04-25T02:28:55.434Z,68.50
2018-04-25T02:29:59.552Z,79.00
2018-04-25T02:31:04.121Z,60.50
2018-04-25T02:32:08.504Z,45.50
2018-04-25T02:33:12.603Z,75.50
2018-04-25T02:34:17.037Z,79.50
2018-04-25T02:35:21.551Z,91.00
2018-04-25T02:36:25.973Z,63.50
2018-04-25T02:37:30.239Z,73.50
2018-04-25T02:38:34.619Z,81.50
2018-04-25T02:39:40.043Z,65.50
2018-04-25T02:40:44.218Z,68.50
2018-04-25T02:41:49.110Z,66.00
2018-04-25T02:42:53.962Z,73.00
2018-04-25T02:43:58.110Z,73.50
2018-04-25T02:45:04.125Z,64.00
2018-04-25T02:46:09.035Z,70.50
2018-04-25T02:47:13.103Z,66.50
2018-04-25T02:48:17.175Z,61.00
2018-04-25T02:49:21.339Z,51.00
2018-04-25T02:50:25.393Z,74.00
2018-04-25T02:51:29.439Z,64.50
2018-04-25T02:52:34.050Z,68.00
2018-04-25T02:53:38.117Z,63.50
2018-04-25T02:54:42.253Z,75.50
2018-04-25T02:55:46.991Z,76.50
2018-04-25T02:56:51.352Z,41.50
2018-04-25T02:57:56.930Z,81.50
2018-04-25T02:59:01.488Z,66.50
2018-04-25T03:00:07.382Z,63.50
2018-04-25T03:01:11.760Z,81.50
2018-04-25T03:02:15.913Z,61.00
2018-04-25T03:03:20.105Z,55.50
2018-04-25T03:04:24.696Z,58.50
2018-04-25T03:05:28.837Z,67.00
2018-04-25T03:06:33.417Z,72.00
2018-04-25T03:07:37.820Z,56.00
2018-04-25T03:08:43.742Z,75.50
2018-04-25T03:09:48.709Z,87.00
2018-04-25T03:10:53.787Z,61.00
2018-04-25T03:11:57.952Z,85.00
2018-04-25T03:13:02.497Z,50.50
2018-04-25T03:14:06.760Z,71.50
2018-04-25T03:15:13.540Z,91.00
2018-04-25T03:16:18.416Z,79.00
2018-04-25T03:17:22.912Z,76.00
2018-04-25T03:18:27.297Z,70.00
2018-04-25T03:19:32.028Z,52.50
2018-04-25T03:20:36.606Z,46.00
2018-04-25T03:21:41.212Z,66.50
2018-04-25T03:22:46.450Z,70.00
2018-04-25T03:23:50.633Z,72.50
2018-04-25T03:24:55.091Z,60.00
2018-04-25T03:25:59.558Z,63.50
2018-04-25T03:27:03.649Z,63.00
2018-04-25T03:28:08.109Z,62.50
2018-04-25T03:29:12.187Z,60.00
2018-04-25T03:30:16.633Z,65.00
2018-04-25T03:31:20.755Z,78.00
2018-04-25T03:32:25.188Z,67.00
2018-04-25T03:33:29.252Z,55.50
2018-04-25T03:34:34.027Z,28.50
2018-04-25T03:35:38.117Z,68.00
2018-04-25T03:36:43.780Z,50.00
2018-04-25T03:37:48.264Z,72.00
2018-04-25T03:38:52.690Z,88.50
2018-04-25T03:39:57.519Z,61.00
2018-04-25T03:41:01.996Z,78.00
2018-04-25T03:42:06.864Z,88.00
2018-04-25T03:43:10.964Z,61.50
2018-04-25T03:44:15.045Z,57.50
2018-04-25T03:45:19.552Z,58.00
2018-04-25T03:46:24.018Z,50.00
2018-04-25T03:47:28.158Z,71.00
2018-04-25T03:48:32.331Z,50.50
2018-04-25T03:49:36.526Z,70.00
2018-04-25T03:50:40.598Z,65.50
2018-04-25T03:51:44.711Z,53.00
2018-04-25T03:52:48.888Z,74.00
2018-04-25T03:53:53.012Z,65.50
2018-04-25T03:54:57.076Z,83.00
2018-04-25T03:56:01.269Z,57.00
2018-04-25T03:57:05.328Z,72.00
2018-04-25T03:58:09.765Z,71.50
2018-04-25T03:59:13.979Z,73.50
2018-04-25T04:00:18.219Z,86.50
2018-04-25T04:01:22.364Z,69.50
2018-04-25T04:02:26.444Z,53.00
2018-04-25T04:03:30.543Z,55.00
2018-04-25T04:04:34.864Z,64.50
2018-04-25T04:05:38.983Z,47.50
2018-04-25T04:06:43.053Z,66.50
2018-04-25T04:07:47.130Z,51.50
2018-04-25T04:08:51.293Z,55.00
2018-04-25T04:09:55.398Z,68.00
2018-04-25T04:10:59.845Z,53.00
2018-04-25T04:12:03.931Z,35.50
2018-04-25T04:13:08.055Z,70.00
2018-04-25T04:14:12.137Z,60.50
2018-04-25T04:15:17.111Z,52.00
2018-04-25T04:16:21.511Z,62.50
2018-04-25T04:17:25.896Z,65.00
2018-04-25T04:18:29.996Z,44.50
2018-04-25T04:19:34.327Z,57.50
2018-04-25T04:20:38.649Z,65.00
2018-04-25T04:21:42.949Z,71.00
2018-04-25T04:22:47.127Z,65.00
2018-04-25T04:23:51.627Z,50.00
2018-04-25T04:24:56.917Z,58.50
2018-04-25T04:26:01.082Z,38.00
2018-04-25T04:27:05.195Z,65.00
2018-04-25T04:28:09.645Z,58.00
2018-04-25T04:29:14.619Z,46.00
2018-04-25T04:30:18.707Z,55.50
2018-04-25T04:31:23.319Z,37.00
2018-04-25T04:32:27.669Z,54.50
2018-04-25T04:33:32.199Z,42.50
2018-04-25T04:34:36.487Z,41.00
2018-04-25T04:35:40.977Z,57.00
2018-04-25T04:36:45.104Z,54.00
2018-04-25T04:37:49.247Z,43.50
2018-04-25T04:38:53.367Z,49.50
2018-04-25T04:39:57.517Z,43.00
2018-04-25T04:41:01.645Z,52.50
2018-04-25T04:42:06.013Z,40.00
2018-04-25T04:43:10.090Z,44.50
2018-04-25T04:44:14.165Z,38.50
2018-04-25T04:45:18.323Z,52.00
2018-04-25T04:46:22.379Z,55.50
2018-04-25T04:47:26.458Z,59.00
2018-04-25T04:48:30.860Z,43.00
2018-04-25T04:49:35.344Z,46.50
2018-04-25T04:50:39.451Z,42.00
2018-04-25T04:51:43.645Z,51.00
2018-04-25T04:52:48.711Z,42.50
2018-04-25T04:53:52.809Z,48.50
2018-04-25T04:54:56.885Z,57.50
2018-04-25T04:56:00.975Z,55.00
2018-04-25T04:57:05.243Z,57.00
2018-04-25T04:58:09.315Z,49.50
2018-04-25T04:59:13.403Z,55.00
2018-04-25T05:00:17.769Z,68.50
2018-04-25T05:01:21.870Z,58.50
2018-04-25T05:02:25.982Z,45.00
2018-04-25T05:03:30.069Z,33.50
2018-04-25T05:04:34.743Z,54.50
2018-04-25T05:05:38.831Z,53.00
2018-04-25T05:06:42.904Z,50.00
2018-04-25T05:07:47.771Z,68.50
2018-04-25T05:08:51.879Z,46.00
2018-04-25T05:09:56.857Z,45.00
2018-04-25T05:11:01.298Z,34.50
2018-04-25T05:12:05.419Z,42.00
2018-04-25T05:13:09.566Z,43.50
2018-04-25T05:14:13.612Z,44.00
2018-04-25T05:15:17.817Z,55.50
2018-04-25T05:16:21.912Z,56.00
2018-04-25T05:17:26.081Z,56.50
2018-04-25T05:18:30.255Z,39.50
2018-04-25T05:19:34.633Z,47.00
2018-04-25T05:20:38.783Z,45.50
2018-04-25T05:21:42.872Z,42.00
2018-04-25T05:22:47.673Z,46.50
2018-04-25T05:23:51.758Z,42.00
2018-04-25T05:24:55.846Z,45.50
2018-04-25T05:25:59.938Z,44.50
2018-04-25T05:27:04.046Z,40.50
2018-04-25T05:28:08.531Z,46.50
2018-04-25T05:29:12.631Z,37.00
2018-04-25T05:30:16.751Z,32.50
2018-04-25T05:31:20.829Z,33.00
2018-04-25T05:32:24.995Z,54.00
2018-04-25T05:33:29.076Z,37.50
2018-04-25T05:34:33.308Z,46.50
2018-04-25T05:35:37.689Z,40.00
2018-04-25T05:36:41.768Z,36.00
2018-04-25T05:37:46.514Z,37.00
2018-04-25T05:38:50.611Z,49.00
2018-04-25T05:39:54.740Z,56.50
2018-04-25T05:40:59.607Z,41.50
2018-04-25T05:42:03.799Z,39.00
2018-04-25T05:43:08.023Z,37.00
2018-04-25T05:44:12.154Z,57.50
2018-04-25T05:45:16.792Z,40.00
2018-04-25T05:46:20.894Z,43.00
2018-04-25T05:47:25.036Z,45.50
2018-04-25T05:48:29.131Z,50.50
2018-04-25T05:49:33.435Z,37.50
2018-04-25T05:50:37.572Z,40.00
2018-04-25T05:51:42.152Z,42.00
2018-04-25T05:52:47.075Z,46.00
2018-04-25T05:53:51.193Z,45.00
2018-04-25T05:54:55.370Z,34.00
2018-04-25T05:55:59.469Z,37.00
2018-04-25T05:57:03.586Z,44.50
2018-04-25T05:58:07.971Z,45.50
2018-04-25T05:59:12.122Z,45.00
2018-04-25T06:00:16.874Z,54.00
2018-04-25T06:01:21.042Z,47.50
2018-04-25T06:02:25.155Z,36.00
2018-04-25T06:03:29.292Z,49.50
2018-04-25T06:04:33.895Z,42.50
2018-04-25T06:05:38.126Z,43.00
2018-04-25T06:06:42.290Z,33.50
2018-04-25T06:07:47.201Z,45.00
2018-04-25T06:08:51.290Z,44.00
2018-04-25T06:09:56.282Z,42.00
2018-04-25T06:11:00.782Z,44.50
2018-04-25T06:12:04.875Z,38.00
2018-04-25T06:13:09.017Z,49.50
2018-04-25T06:14:13.225Z,46.50
2018-04-25T06:15:17.818Z,45.00
2018-04-25T06:16:22.690Z,48.00
2018-04-25T06:17:27.178Z,51.50
2018-04-25T06:18:31.309Z,53.50
2018-04-25T06:19:35.685Z,43.50
2018-04-25T06:20:40.059Z,44.50
2018-04-25T06:21:44.186Z,34.50
2018-04-25T06:22:48.661Z,50.50
2018-04-25T06:23:52.855Z,44.00
2018-04-25T06:24:56.907Z,47.00
2018-04-25T06:26:01.139Z,48.00
2018-04-25T06:27:05.223Z,40.50
2018-04-25T06:28:09.455Z,53.00
2018-04-25T06:29:13.871Z,51.50
2018-04-25T06:30:18.155Z,54.00
2018-04-25T06:31:22.284Z,48.50
2018-04-25T06:32:26.477Z,55.00
2018-04-25T06:33:30.621Z,54.00
2018-04-25T06:34:34.715Z,52.00
2018-04-25T06:35:39.078Z,48.00
2018-04-25T06:36:43.334Z,42.00
2018-04-25T06:37:48.256Z,63.00
2018-04-25T06:38:52.548Z,37.00
2018-04-25T06:39:56.643Z,53.00
2018-04-25T06:41:00.722Z,39.50
2018-04-25T06:42:04.861Z,52.50
2018-04-25T06:43:09.036Z,57.00
2018-04-25T06:44:13.188Z,45.00
2018-04-25T06:45:17.309Z,71.50
2018-04-25T06:46:21.430Z,54.00
2018-04-25T06:47:25.846Z,38.50
2018-04-25T06:48:30.007Z,58.00
2018-04-25T06:49:34.119Z,50.00
2018-04-25T06:50:38.540Z,53.50
2018-04-25T06:51:42.792Z,44.50
2018-04-25T06:52:46.902Z,48.50
2018-04-25T06:53:51.635Z,45.50
2018-04-25T06:54:55.736Z,43.00
2018-04-25T06:56:00.509Z,51.00
2018-04-25T06:57:04.619Z,49.50
2018-04-25T06:58:08.712Z,49.50
2018-04-25T06:59:13.135Z,52.00
2018-04-25T07:00:17.345Z,79.00
2018-04-25T07:01:21.742Z,40.50
2018-04-25T07:02:25.816Z,54.00
2018-04-25T07:03:30.017Z,58.00
2018-04-25T07:04:34.195Z,58.50
2018-04-25T07:05:38.539Z,51.50
2018-04-25T07:06:42.816Z,44.50
2018-04-25T07:07:46.897Z,46.00
2018-04-25T07:08:51.740Z,36.50
2018-04-25T07:09:56.716Z,46.00
2018-04-25T07:11:01.742Z,42.00
2018-04-25T07:12:05.994Z,49.00
2018-04-25T07:13:10.094Z,32.50
2018-04-25T07:14:14.281Z,31.50
2018-04-25T07:15:18.532Z,50.00
2018-04-25T07:16:22.710Z,45.00
2018-04-25T07:17:27.269Z,34.50
2018-04-25T07:18:31.709Z,43.00
2018-04-25T07:19:35.873Z,37.50
2018-04-25T07:20:40.264Z,40.50
2018-04-25T07:21:44.454Z,39.00
2018-04-25T07:22:48.631Z,33.00
2018-04-25T07:23:53.398Z,35.00
2018-04-25T07:24:57.536Z,42.50
2018-04-25T07:26:02.459Z,48.00
2018-04-25T07:27:06.609Z,34.00
2018-04-25T07:28:10.746Z,34.00
2018-04-25T07:29:14.846Z,36.50
2018-04-25T07:30:19.199Z,36.50
2018-04-25T07:31:23.366Z,27.00
2018-04-25T07:32:27.443Z,41.00
2018-04-25T07:33:31.563Z,38.00
2018-04-25T07:34:36.068Z,31.50
2018-04-25T07:35:40.383Z,36.00
2018-04-25T07:36:44.519Z,34.00
2018-04-25T07:37:48.747Z,39.50
2018-04-25T07:38:52.970Z,43.50
2018-04-25T07:39:57.085Z,40.00
2018-04-25T07:41:01.224Z,45.00
2018-04-25T07:42:05.309Z,45.50
2018-04-25T07:43:09.513Z,40.00
2018-04-25T07:44:13.606Z,36.50
2018-04-25T07:45:18.025Z,41.00
2018-04-25T07:46:22.115Z,44.50
2018-04-25T07:47:26.286Z,27.50
2018-04-25T07:48:30.539Z,34.50
2018-04-25T07:49:34.827Z,44.50
2018-04-25T07:50:39.127Z,42.50
2018-04-25T07:51:43.244Z,30.50
2018-04-25T07:52:47.414Z,27.50
2018-04-25T07:53:51.514Z,33.00
2018-04-25T07:54:55.635Z,27.00
2018-04-25T07:55:59.818Z,24.00
2018-04-25T07:57:04.590Z,27.50
2018-04-25T07:58:09.026Z,23.00
2018-04-25T07:59:13.235Z,27.00
2018-04-25T08:00:17.619Z,36.00
2018-04-25T08:01:21.729Z,21.50
2018-04-25T08:02:25.839Z,29.00
2018-04-25T08:03:29.954Z,38.00
2018-04-25T08:04:34.439Z,28.00
2018-04-25T08:05:38.697Z,31.00
2018-04-25T08:06:42.923Z,29.00
2018-04-25T08:07:47.035Z,29.50
2018-04-25T08:08:51.121Z,30.50
2018-04-25T08:09:55.221Z,26.50
2018-04-25T08:10:59.643Z,40.50
2018-04-25T08:12:04.210Z,22.00
2018-04-25T08:15:22.561Z,26.50
2018-04-25T08:16:37.915Z,36.00
2018-04-25T08:19:56.738Z,27.50
2018-04-25T08:21:09.737Z,28.00
2018-04-25T08:22:14.196Z,30.50
2018-04-25T08:23:18.286Z,36.00
2018-04-25T08:24:22.493Z,30.50
2018-04-25T08:25:26.599Z,30.50
2018-04-25T08:26:30.821Z,24.00
2018-04-25T08:27:34.963Z,25.00
2018-04-25T08:28:39.876Z,20.50
2018-04-25T08:29:44.140Z,24.00
2018-04-25T08:30:48.477Z,26.00
2018-04-25T08:31:53.339Z,28.00
2018-04-25T08:32:57.441Z,28.00
2018-04-25T08:34:01.513Z,33.50
2018-04-25T08:35:05.951Z,24.00
2018-04-25T08:36:10.122Z,24.00
2018-04-25T08:37:14.194Z,25.00
2018-04-25T08:38:19.259Z,28.00
2018-04-25T08:39:23.438Z,24.50
2018-04-25T08:40:27.514Z,35.00
2018-04-25T08:41:31.983Z,30.50
2018-04-25T08:42:36.078Z,31.00
2018-04-25T08:43:40.246Z,28.50
2018-04-25T08:44:44.410Z,31.50
2018-04-25T08:45:48.829Z,34.00
2018-04-25T08:46:53.327Z,29.00
2018-04-25T08:47:57.432Z,26.00
2018-04-25T08:49:01.626Z,26.50
2018-04-25T08:50:06.695Z,32.50
2018-04-25T08:51:10.819Z,29.50
2018-04-25T08:52:15.024Z,26.00
2018-04-25T08:53:19.841Z,30.00
2018-04-25T08:54:23.970Z,26.00
2018-04-25T08:55:28.143Z,26.00
2018-04-25T08:56:32.235Z,27.00
2018-04-25T08:57:36.298Z,22.50
2018-04-25T08:58:40.711Z,26.00
2018-04-25T08:59:44.882Z,24.50
2018-04-25T09:00:49.639Z,27.50
2018-04-25T09:01:53.932Z,22.50
2018-04-25T09:02:58.033Z,22.00
2018-04-25T09:04:02.112Z,20.00
2018-04-25T09:05:06.811Z,23.00
2018-04-25T09:06:10.969Z,23.00
2018-04-25T09:07:15.037Z,25.00
2018-04-25T09:08:19.154Z,24.00
2018-04-25T09:09:23.263Z,24.50
2018-04-25T09:10:27.455Z,29.50
2018-04-25T09:11:32.521Z,26.00
2018-04-25T09:12:36.737Z,26.00
2018-04-25T09:13:40.896Z,27.50
2018-04-25T09:14:45.027Z,25.00
2018-04-25T09:15:49.631Z,25.50
2018-04-25T09:16:53.852Z,28.00
2018-04-25T09:17:57.989Z,29.00
2018-04-25T09:19:02.114Z,30.00
2018-04-25T09:20:06.842Z,25.50
2018-04-25T09:21:11.035Z,25.50
2018-04-25T09:22:15.135Z,28.00
2018-04-25T09:23:19.354Z,34.00
2018-04-25T09:24:23.561Z,26.00
2018-04-25T09:25:27.701Z,30.00
2018-04-25T09:26:32.546Z,24.50
2018-04-25T09:27:36.655Z,28.00
2018-04-25T09:28:40.838Z,23.50
2018-04-25T09:29:44.958Z,26.00
2018-04-25T09:30:49.665Z,37.50
2018-04-25T09:31:53.888Z,33.50
2018-04-25T09:32:58.051Z,27.00
2018-04-25T09:34:02.135Z,29.00
2018-04-25T09:35:06.368Z,32.00
2018-04-25T09:36:10.554Z,29.00
2018-04-25T09:37:14.641Z,27.00
2018-04-25T09:38:18.751Z,26.00
2018-04-25T09:39:23.171Z,49.50
2018-04-25T09:40:27.358Z,29.50
2018-04-25T09:41:31.502Z,30.50
2018-04-25T09:42:35.587Z,27.00
2018-04-25T09:43:39.681Z,27.00
2018-04-25T09:44:43.778Z,24.00
2018-04-25T09:45:48.367Z,28.50
2018-04-25T09:46:52.883Z,34.00
2018-04-25T09:47:57.224Z,37.00
2018-04-25T09:49:01.616Z,36.00
2018-04-25T09:50:05.732Z,28.50
2018-04-25T09:51:10.643Z,26.50
2018-04-25T09:52:15.046Z,30.00
2018-04-25T09:53:19.269Z,30.00
2018-04-25T09:54:23.455Z,28.00
2018-04-25T09:55:27.589Z,28.50
2018-04-25T09:56:31.661Z,28.50
2018-04-25T09:57:36.634Z,34.00
2018-04-25T09:58:40.733Z,29.50
2018-04-25T09:59:44.846Z,31.00
2018-04-25T10:00:53.425Z,33.00
2018-04-25T10:02:01.711Z,36.50
2018-04-25T10:03:09.828Z,30.50
2018-04-25T10:04:13.994Z,23.00
2018-04-25T10:05:18.078Z,32.00
2018-04-25T10:06:22.184Z,30.50
2018-04-25T10:07:26.755Z,30.50
2018-04-25T10:08:30.942Z,22.00
2018-04-25T10:09:35.046Z,29.50
2018-04-25T10:10:40.082Z,29.50
2018-04-25T10:11:44.167Z,22.00
2018-04-25T10:12:48.288Z,26.50
2018-04-25T10:13:52.732Z,27.00
2018-04-25T10:14:56.988Z,20.00
2018-04-25T10:16:01.802Z,32.00
2018-04-25T10:17:06.580Z,31.00
2018-04-25T10:18:10.658Z,31.50
2018-04-25T10:19:15.418Z,33.50
2018-04-25T10:20:19.566Z,27.50
2018-04-25T10:21:23.668Z,27.50
2018-04-25T10:22:27.929Z,34.50
2018-04-25T10:23:32.068Z,30.00
2018-04-25T10:24:36.805Z,35.00
2018-04-25T10:25:42.150Z,32.00
2018-04-25T10:26:46.242Z,27.50
2018-04-25T10:27:50.401Z,32.50
2018-04-25T10:28:54.585Z,26.00
2018-04-25T10:29:58.774Z,31.00
2018-04-25T10:31:03.592Z,38.00
2018-04-25T10:32:08.191Z,27.50
2018-04-25T10:33:12.600Z,41.00
2018-04-25T10:34:16.681Z,25.00
2018-04-25T10:35:20.855Z,23.00
2018-04-25T10:36:24.958Z,24.00
2018-04-25T10:37:29.218Z,20.50
2018-04-25T10:38:33.289Z,26.00
2018-04-25T10:39:37.511Z,25.00
2018-04-25T10:40:41.588Z,29.50
2018-04-25T10:41:45.879Z,28.00
2018-04-25T10:42:50.049Z,24.00
2018-04-25T10:43:54.166Z,28.00
2018-04-25T10:44:58.242Z,22.50
2018-04-25T10:46:02.686Z,27.50
2018-04-25T10:47:06.960Z,27.00
2018-04-25T10:48:11.170Z,30.50
2018-04-25T10:49:16.139Z,26.00
2018-04-25T10:50:20.888Z,26.00
2018-04-25T10:51:24.970Z,26.50
2018-04-25T10:52:29.056Z,33.00
2018-04-25T10:53:34.847Z,22.50
2018-04-25T10:54:39.197Z,31.00
2018-04-25T10:55:43.683Z,27.50
2018-04-25T10:56:47.779Z,29.00
2018-04-25T10:57:51.918Z,24.00
2018-04-25T10:58:56.063Z,29.50
2018-04-25T11:00:00.169Z,31.00
2018-04-25T11:01:04.912Z,37.50
2018-04-25T11:02:09.448Z,39.50
2018-04-25T11:03:13.547Z,30.50
2018-04-25T11:04:17.949Z,33.50
2018-04-25T11:05:22.208Z,28.00
2018-04-25T11:06:26.296Z,23.50
2018-04-25T11:07:30.429Z,26.00
2018-04-25T11:08:34.650Z,27.50
2018-04-25T11:09:38.757Z,28.00
2018-04-25T11:10:42.933Z,29.50
2018-04-25T11:11:47.316Z,23.50
2018-04-25T11:12:52.391Z,25.50
2018-04-25T11:13:57.620Z,26.00
2018-04-25T11:15:03.469Z,30.00
2018-04-25T11:16:09.457Z,34.50
2018-04-25T11:17:13.603Z,29.00
2018-04-25T11:18:18.199Z,32.00
2018-04-25T11:19:22.277Z,31.00
2018-04-25T11:20:27.409Z,33.50
2018-04-25T11:21:31.780Z,28.00
2018-04-25T11:22:36.742Z,30.50
2018-04-25T11:23:41.714Z,24.00
2018-04-25T11:24:49.335Z,29.50
2018-04-25T11:25:59.969Z,24.50
2018-04-25T11:27:05.520Z,25.00
2018-04-25T11:28:11.211Z,34.50
2018-04-25T11:29:15.944Z,34.00
2018-04-25T11:30:20.923Z,31.50
2018-04-25T11:31:25.094Z,26.00
2018-04-25T11:32:29.215Z,32.50
2018-04-25T11:33:33.317Z,31.00
2018-04-25T11:34:37.979Z,31.00
2018-04-25T11:35:42.237Z,28.50
2018-04-25T11:36:46.449Z,32.00
2018-04-25T11:37:51.301Z,30.00
2018-04-25T11:38:55.407Z,29.00
2018-04-25T11:39:59.566Z,24.00
2018-04-25T11:41:04.471Z,28.50
2018-04-25T11:42:08.837Z,27.50
2018-04-25T11:43:13.071Z,30.00
2018-04-25T11:44:17.160Z,32.00
2018-04-25T11:45:22.468Z,40.50
2018-04-25T11:46:26.638Z,32.00
2018-04-25T11:47:30.778Z,38.00
2018-04-25T11:48:36.016Z,31.50
2018-04-25T11:49:40.148Z,29.00
2018-04-25T11:50:44.295Z,24.00
2018-04-25T11:51:48.566Z,27.00
2018-04-25T11:52:53.999Z,32.00
2018-04-25T11:53:58.135Z,27.00
2018-04-25T11:55:02.314Z,32.50
2018-04-25T11:56:06.423Z,30.50
2018-04-25T11:57:10.505Z,33.00
2018-04-25T11:58:14.851Z,28.50
2018-04-25T11:59:19.201Z,27.50
2018-04-25T12:00:23.768Z,38.00
2018-04-25T12:01:27.946Z,27.50
2018-04-25T12:02:32.221Z,24.00
2018-04-25T12:03:36.335Z,32.00
2018-04-25T12:04:40.512Z,23.00
2018-04-25T12:05:44.726Z,23.00
2018-04-25T12:06:48.844Z,38.00
2018-04-25T12:07:52.921Z,38.00
2018-04-25T12:08:57.248Z,32.00
2018-04-25T12:10:01.425Z,27.50
2018-04-25T12:11:05.495Z,32.00
2018-04-25T12:12:09.642Z,30.00
2018-04-25T12:13:13.821Z,29.50
2018-04-25T12:14:18.044Z,32.50
2018-04-25T12:15:22.855Z,45.50
2018-04-25T12:16:26.987Z,37.50
2018-04-25T12:17:31.081Z,30.00
2018-04-25T12:18:35.198Z,35.50
2018-04-25T12:19:39.411Z,27.50
2018-04-25T12:20:43.522Z,33.50
2018-04-25T12:21:49.043Z,31.50
2018-04-25T12:22:53.132Z,32.50
2018-04-25T12:23:57.283Z,30.00
2018-04-25T12:25:01.376Z,32.00
2018-04-25T12:26:05.558Z,33.00
2018-04-25T12:27:09.654Z,28.00
2018-04-25T12:28:14.140Z,28.00
2018-04-25T12:29:18.275Z,26.50
2018-04-25T12:30:23.028Z,37.50
2018-04-25T12:31:27.260Z,32.00
2018-04-25T12:32:31.366Z,34.00
2018-04-25T12:33:35.491Z,35.00
2018-04-25T12:34:39.655Z,30.00
2018-04-25T12:35:43.835Z,37.50
2018-04-25T12:36:47.905Z,30.50
2018-04-25T12:37:52.113Z,30.00
2018-04-25T12:38:56.942Z,32.00
2018-04-25T12:40:01.051Z,29.00
2018-04-25T12:41:05.250Z,34.00
2018-04-25T12:42:09.347Z,34.00
2018-04-25T12:43:13.430Z,28.50
2018-04-25T12:44:17.623Z,28.00
2018-04-25T12:45:22.261Z,66.00
2018-04-25T12:46:26.480Z,34.50
2018-04-25T12:47:30.642Z,30.00
2018-04-25T12:48:34.728Z,39.50
2018-04-25T12:49:38.853Z,30.00
2018-04-25T12:50:42.999Z,31.50
2018-04-25T12:51:47.173Z,28.00
2018-04-25T12:52:51.412Z,34.50
2018-04-25T12:53:55.557Z,25.50
2018-04-25T12:55:00.656Z,34.50
2018-04-25T12:56:04.789Z,29.50
2018-04-25T12:57:08.975Z,33.50
2018-04-25T12:58:13.064Z,31.00
2018-04-25T12:59:17.285Z,36.00
2018-04-25T13:00:21.506Z,37.50
2018-04-25T13:01:25.986Z,35.50
2018-04-25T13:02:30.444Z,36.50
2018-04-25T13:03:34.642Z,37.50
2018-04-25T13:04:38.745Z,32.00
2018-04-25T13:05:43.773Z,38.00
2018-04-25T13:06:47.919Z,35.00
2018-04-25T13:07:52.501Z,26.50
2018-04-25T13:08:56.648Z,32.00
2018-04-25T13:10:00.748Z,39.50
2018-04-25T13:11:05.042Z,33.50
2018-04-25T13:12:09.211Z,33.00
2018-04-25T13:13:13.327Z,29.50
2018-04-25T13:14:17.980Z,39.00
2018-04-25T13:15:22.314Z,85.50
2018-04-25T13:16:26.721Z,37.50
2018-04-25T13:17:31.191Z,32.50
2018-04-25T13:18:35.311Z,32.00
2018-04-25T13:19:39.389Z,29.00
2018-04-25T13:20:43.826Z,38.00
2018-04-25T13:21:47.932Z,34.50
2018-04-25T13:22:52.138Z,39.00
2018-04-25T13:23:56.243Z,36.50
2018-04-25T13:25:00.399Z,33.50
2018-04-25T13:26:04.854Z,39.50
2018-04-25T13:27:08.972Z,41.50
2018-04-25T13:28:13.073Z,42.00
2018-04-25T13:29:17.351Z,33.50
2018-04-25T13:30:21.592Z,41.00
2018-04-25T13:31:26.047Z,38.50
2018-04-25T13:32:30.490Z,31.50
2018-04-25T13:33:35.305Z,32.00
2018-04-25T13:34:39.748Z,42.00
2018-04-25T13:35:43.915Z,38.00
2018-04-25T13:36:48.065Z,34.50
2018-04-25T13:37:52.301Z,36.00
2018-04-25T13:38:56.698Z,44.50
2018-04-25T13:40:00.816Z,42.00
2018-04-25T13:41:04.986Z,39.50
2018-04-25T13:42:09.236Z,45.00
2018-04-25T13:43:13.366Z,38.00
2018-04-25T13:44:17.505Z,40.50
2018-04-25T13:45:21.670Z,42.50
2018-04-25T13:46:26.047Z,44.00
2018-04-25T13:47:30.335Z,45.50
2018-04-25T13:48:34.955Z,46.50
2018-04-25T13:49:39.251Z,32.00
2018-04-25T13:50:43.464Z,37.00
2018-04-25T13:51:47.555Z,40.00
2018-04-25T13:52:52.545Z,28.50
2018-04-25T13:53:56.622Z,30.00
2018-04-25T13:55:00.834Z,30.50